sensor_id;sensor_type;location;lat;lon;timestamp;pressure;altitude;pressure_sealevel;temperature;humidity
17764;BME280;22245;52.832;13.816;2023-09-12T00:02:30;101010.34;;;16.87;88.53
17764;BME280;22245;52.832;13.816;2023-09-12T00:05:52;101015.06;;;16.85;88.23
17764;BME280;22245;52.832;13.816;2023-09-12T00:09:14;101008.47;;;16.79;88.44
17764;BME280;22245;52.832;13.816;2023-09-12T00:12:35;101017.41;;;16.80;88.23
17764;BME280;22245;52.832;13.816;2023-09-12T00:15:57;101013.38;;;16.76;88.17
17764;BME280;22245;52.832;13.816;2023-09-12T00:19:20;101013.03;;;16.71;88.16
17764;BME280;22245;52.832;13.816;2023-09-12T00:22:41;101020.56;;;16.67;88.03
17764;BME280;22245;52.832;13.816;2023-09-12T00:26:03;101011.84;;;16.65;87.96
17764;BME280;22245;52.832;13.816;2023-09-12T00:29:24;101011.63;;;16.58;88.21
17764;BME280;22245;52.832;13.816;2023-09-12T00:32:46;101010.28;;;16.54;88.68
17764;BME280;22245;52.832;13.816;2023-09-12T00:36:09;101003.22;;;16.53;88.84
17764;BME280;22245;52.832;13.816;2023-09-12T00:39:31;101006.09;;;16.52;88.75
17764;BME280;22245;52.832;13.816;2023-09-12T00:42:52;101002.72;;;16.49;88.84
17764;BME280;22245;52.832;13.816;2023-09-12T00:46:18;101010.63;;;16.51;88.56
17764;BME280;22245;52.832;13.816;2023-09-12T00:49:40;101019.00;;;16.48;88.48
17764;BME280;22245;52.832;13.816;2023-09-12T00:53:04;101018.84;;;16.49;88.39
17764;BME280;22245;52.832;13.816;2023-09-12T00:56:26;101013.78;;;16.46;88.21
17764;BME280;22245;52.832;13.816;2023-09-12T00:59:49;101023.72;;;16.46;88.24
17764;BME280;22245;52.832;13.816;2023-09-12T01:03:10;101018.66;;;16.43;88.37
17764;BME280;22245;52.832;13.816;2023-09-12T01:06:33;101014.44;;;16.40;88.28
17764;BME280;22245;52.832;13.816;2023-09-12T01:09:58;101014.75;;;16.37;88.41
17764;BME280;22245;52.832;13.816;2023-09-12T01:13:20;101014.28;;;16.33;88.42
17764;BME280;22245;52.832;13.816;2023-09-12T01:16:42;101012.91;;;16.29;88.50
17764;BME280;22245;52.832;13.816;2023-09-12T01:20:06;101018.44;;;16.28;88.64
17764;BME280;22245;52.832;13.816;2023-09-12T01:23:41;101013.53;;;16.23;88.72
17764;BME280;22245;52.832;13.816;2023-09-12T01:27:18;101015.88;;;16.18;89.14
17764;BME280;22245;52.832;13.816;2023-09-12T01:30:42;101023.56;;;16.13;89.42
17764;BME280;22245;52.832;13.816;2023-09-12T01:34:10;101016.53;;;16.12;88.90
17764;BME280;22245;52.832;13.816;2023-09-12T01:37:31;101022.22;;;16.09;89.60
17764;BME280;22245;52.832;13.816;2023-09-12T01:40:54;101023.53;;;16.04;89.32
17764;BME280;22245;52.832;13.816;2023-09-12T01:44:18;101023.69;;;16.03;89.70
17764;BME280;22245;52.832;13.816;2023-09-12T01:47:43;101025.69;;;16.01;89.83
17764;BME280;22245;52.832;13.816;2023-09-12T01:51:07;101013.59;;;15.97;89.80
17764;BME280;22245;52.832;13.816;2023-09-12T01:54:29;101029.88;;;15.95;89.75
17764;BME280;22245;52.832;13.816;2023-09-12T01:57:50;101024.84;;;15.92;89.99
17764;BME280;22245;52.832;13.816;2023-09-12T02:01:14;101027.94;;;15.87;90.00
17764;BME280;22245;52.832;13.816;2023-09-12T02:04:35;101022.22;;;15.82;90.46
17764;BME280;22245;52.832;13.816;2023-09-12T02:07:56;101016.16;;;15.80;90.70
17764;BME280;22245;52.832;13.816;2023-09-12T02:11:21;101015.47;;;15.78;90.64
17764;BME280;22245;52.832;13.816;2023-09-12T02:14:44;101014.81;;;15.76;90.78
17764;BME280;22245;52.832;13.816;2023-09-12T02:18:06;101020.31;;;15.74;90.55
17764;BME280;22245;52.832;13.816;2023-09-12T02:21:28;101015.13;;;15.73;90.88
17764;BME280;22245;52.832;13.816;2023-09-12T02:24:50;101012.72;;;15.70;90.97
17764;BME280;22245;52.832;13.816;2023-09-12T02:28:12;101024.31;;;15.70;91.02
17764;BME280;22245;52.832;13.816;2023-09-12T02:31:33;101016.59;;;15.67;91.22
17764;BME280;22245;52.832;13.816;2023-09-12T02:34:56;101010.69;;;15.63;91.31
17764;BME280;22245;52.832;13.816;2023-09-12T02:38:19;101009.16;;;15.61;91.17
17764;BME280;22245;52.832;13.816;2023-09-12T02:41:40;101016.53;;;15.59;91.19
17764;BME280;22245;52.832;13.816;2023-09-12T02:45:02;101012.31;;;15.56;91.67
17764;BME280;22245;52.832;13.816;2023-09-12T02:48:25;101000.91;;;15.54;91.58
17764;BME280;22245;52.832;13.816;2023-09-12T02:51:48;101003.03;;;15.51;91.74
17764;BME280;22245;52.832;13.816;2023-09-12T02:55:10;100990.78;;;15.48;92.06
17764;BME280;22245;52.832;13.816;2023-09-12T02:58:31;100991.25;;;15.43;92.20
17764;BME280;22245;52.832;13.816;2023-09-12T03:01:53;100992.09;;;15.44;92.40
17764;BME280;22245;52.832;13.816;2023-09-12T03:05:14;100991.41;;;15.42;92.50
17764;BME280;22245;52.832;13.816;2023-09-12T03:08:38;100988.75;;;15.42;92.80
17764;BME280;22245;52.832;13.816;2023-09-12T03:12:01;100994.94;;;15.42;92.68
17764;BME280;22245;52.832;13.816;2023-09-12T03:15:23;100973.78;;;15.39;93.12
17764;BME280;22245;52.832;13.816;2023-09-12T03:18:45;100979.31;;;15.38;93.21
17764;BME280;22245;52.832;13.816;2023-09-12T03:22:06;100978.31;;;15.39;93.05
17764;BME280;22245;52.832;13.816;2023-09-12T03:25:29;100981.16;;;15.37;93.12
17764;BME280;22245;52.832;13.816;2023-09-12T03:28:51;100976.78;;;15.36;93.69
17764;BME280;22245;52.832;13.816;2023-09-12T03:32:13;100976.94;;;15.34;93.27
17764;BME280;22245;52.832;13.816;2023-09-12T03:35:35;100984.16;;;15.34;93.40
17764;BME280;22245;52.832;13.816;2023-09-12T03:38:57;100973.56;;;15.32;92.70
17764;BME280;22245;52.832;13.816;2023-09-12T03:42:20;100975.25;;;15.33;92.32
17764;BME280;22245;52.832;13.816;2023-09-12T03:45:42;100974.56;;;15.31;92.29
17764;BME280;22245;52.832;13.816;2023-09-12T03:49:04;100975.72;;;15.29;92.90
17764;BME280;22245;52.832;13.816;2023-09-12T03:52:26;100976.72;;;15.28;92.86
17764;BME280;22245;52.832;13.816;2023-09-12T03:55:48;100982.41;;;15.25;92.76
17764;BME280;22245;52.832;13.816;2023-09-12T03:59:11;100987.09;;;15.23;92.93
17764;BME280;22245;52.832;13.816;2023-09-12T04:02:33;100984.03;;;15.17;93.37
17764;BME280;22245;52.832;13.816;2023-09-12T04:05:55;100986.72;;;15.17;93.25
17764;BME280;22245;52.832;13.816;2023-09-12T04:09:16;100987.00;;;15.14;93.29
17764;BME280;22245;52.832;13.816;2023-09-12T04:12:38;100989.00;;;15.12;92.94
17764;BME280;22245;52.832;13.816;2023-09-12T04:16:00;100996.03;;;15.13;92.92
17764;BME280;22245;52.832;13.816;2023-09-12T04:19:22;101001.41;;;15.13;92.25
17764;BME280;22245;52.832;13.816;2023-09-12T04:22:44;100997.72;;;15.14;91.99
17764;BME280;22245;52.832;13.816;2023-09-12T04:26:06;101001.72;;;15.10;92.77
17764;BME280;22245;52.832;13.816;2023-09-12T04:29:28;100993.69;;;15.10;92.55
17764;BME280;22245;52.832;13.816;2023-09-12T04:32:51;100999.03;;;15.10;92.52
17764;BME280;22245;52.832;13.816;2023-09-12T04:36:13;101000.22;;;15.08;92.77
17764;BME280;22245;52.832;13.816;2023-09-12T04:39:34;100998.53;;;15.07;92.68
17764;BME280;22245;52.832;13.816;2023-09-12T04:42:56;100999.53;;;15.05;93.02
17764;BME280;22245;52.832;13.816;2023-09-12T04:46:18;100994.16;;;15.05;92.82
17764;BME280;22245;52.832;13.816;2023-09-12T04:49:44;100995.84;;;15.07;92.85
17764;BME280;22245;52.832;13.816;2023-09-12T04:53:05;101000.03;;;15.09;92.45
17764;BME280;22245;52.832;13.816;2023-09-12T04:56:27;101007.78;;;15.12;93.05
17764;BME280;22245;52.832;13.816;2023-09-12T04:59:51;101006.78;;;15.13;92.30
17764;BME280;22245;52.832;13.816;2023-09-12T05:03:12;101003.09;;;15.14;92.66
17764;BME280;22245;52.832;13.816;2023-09-12T05:06:35;101001.13;;;15.16;92.16
17764;BME280;22245;52.832;13.816;2023-09-12T05:09:57;101005.63;;;15.16;92.30
17764;BME280;22245;52.832;13.816;2023-09-12T05:13:19;101005.63;;;15.16;92.16
17764;BME280;22245;52.832;13.816;2023-09-12T05:16:40;101007.19;;;15.18;92.22
17764;BME280;22245;52.832;13.816;2023-09-12T05:20:03;100999.97;;;15.19;92.24
17764;BME280;22245;52.832;13.816;2023-09-12T05:23:28;101004.19;;;15.22;92.43
17764;BME280;22245;52.832;13.816;2023-09-12T05:26:50;101000.19;;;15.26;92.91
17764;BME280;22245;52.832;13.816;2023-09-12T05:30:12;101011.44;;;15.29;93.02
17764;BME280;22245;52.832;13.816;2023-09-12T05:33:35;101014.66;;;15.33;92.42
17764;BME280;22245;52.832;13.816;2023-09-12T05:36:57;101007.97;;;15.37;91.98
17764;BME280;22245;52.832;13.816;2023-09-12T05:40:22;101005.66;;;15.42;91.89
17764;BME280;22245;52.832;13.816;2023-09-12T05:43:44;101012.09;;;15.49;92.26
17764;BME280;22245;52.832;13.816;2023-09-12T05:47:05;101022.22;;;15.56;90.97
17764;BME280;22245;52.832;13.816;2023-09-12T05:50:28;101018.22;;;15.60;91.10
17764;BME280;22245;52.832;13.816;2023-09-12T05:53:50;101021.94;;;15.67;90.97
17764;BME280;22245;52.832;13.816;2023-09-12T05:57:13;101021.31;;;15.73;89.98
17764;BME280;22245;52.832;13.816;2023-09-12T06:00:35;101024.72;;;15.84;89.88
17764;BME280;22245;52.832;13.816;2023-09-12T06:03:57;101028.66;;;15.89;89.05
17764;BME280;22245;52.832;13.816;2023-09-12T06:07:19;101037.44;;;16.00;88.42
17764;BME280;22245;52.832;13.816;2023-09-12T06:10:40;101032.09;;;16.08;88.29
17764;BME280;22245;52.832;13.816;2023-09-12T06:14:03;101025.63;;;16.19;88.00
17764;BME280;22245;52.832;13.816;2023-09-12T06:17:25;101034.72;;;16.26;87.25
17764;BME280;22245;52.832;13.816;2023-09-12T06:20:46;101032.91;;;16.35;86.81
17764;BME280;22245;52.832;13.816;2023-09-12T06:24:09;101023.72;;;16.46;87.12
17764;BME280;22245;52.832;13.816;2023-09-12T06:27:32;101029.63;;;16.58;86.78
17764;BME280;22245;52.832;13.816;2023-09-12T06:30:55;101024.78;;;16.70;86.65
17764;BME280;22245;52.832;13.816;2023-09-12T06:34:17;101031.88;;;16.79;86.20
17764;BME280;22245;52.832;13.816;2023-09-12T06:37:39;101024.31;;;16.91;85.67
17764;BME280;22245;52.832;13.816;2023-09-12T06:41:01;101045.56;;;17.02;84.96
17764;BME280;22245;52.832;13.816;2023-09-12T06:44:24;101045.06;;;17.15;84.49
17764;BME280;22245;52.832;13.816;2023-09-12T06:47:49;101041.34;;;17.25;84.57
17764;BME280;22245;52.832;13.816;2023-09-12T06:51:11;101052.78;;;17.35;84.03
17764;BME280;22245;52.832;13.816;2023-09-12T06:54:37;101040.19;;;17.44;85.32
17764;BME280;22245;52.832;13.816;2023-09-12T06:57:58;101049.44;;;17.49;84.94
17764;BME280;22245;52.832;13.816;2023-09-12T07:01:19;101048.75;;;17.56;84.84
17764;BME280;22245;52.832;13.816;2023-09-12T07:04:42;101038.97;;;17.63;85.54
17764;BME280;22245;52.832;13.816;2023-09-12T07:08:04;101034.44;;;17.72;84.79
17764;BME280;22245;52.832;13.816;2023-09-12T07:11:26;101055.81;;;17.82;83.47
17764;BME280;22245;52.832;13.816;2023-09-12T07:14:48;101039.06;;;17.94;83.52
17764;BME280;22245;52.832;13.816;2023-09-12T07:18:11;101051.38;;;18.05;82.31
17764;BME280;22245;52.832;13.816;2023-09-12T07:21:34;101046.97;;;18.21;81.45
17764;BME280;22245;52.832;13.816;2023-09-12T07:24:59;101053.66;;;18.33;81.05
17764;BME280;22245;52.832;13.816;2023-09-12T07:28:21;101057.63;;;18.46;79.73
17764;BME280;22245;52.832;13.816;2023-09-12T07:31:42;101051.50;;;18.60;79.15
17764;BME280;22245;52.832;13.816;2023-09-12T07:35:05;101044.03;;;18.71;79.00
17764;BME280;22245;52.832;13.816;2023-09-12T07:38:28;101045.28;;;18.83;79.15
17764;BME280;22245;52.832;13.816;2023-09-12T07:41:51;101043.88;;;18.95;78.23
17764;BME280;22245;52.832;13.816;2023-09-12T07:45:12;101047.88;;;19.08;78.37
17764;BME280;22245;52.832;13.816;2023-09-12T07:48:34;101049.31;;;19.19;78.65
17764;BME280;22245;52.832;13.816;2023-09-12T07:51:56;101038.91;;;19.31;77.09
17764;BME280;22245;52.832;13.816;2023-09-12T07:55:19;101046.88;;;19.47;77.71
17764;BME280;22245;52.832;13.816;2023-09-12T07:58:41;101047.28;;;19.59;76.65
17764;BME280;22245;52.832;13.816;2023-09-12T08:02:03;101043.09;;;19.72;75.95
17764;BME280;22245;52.832;13.816;2023-09-12T08:05:26;101043.94;;;19.87;76.04
17764;BME280;22245;52.832;13.816;2023-09-12T08:08:47;101036.34;;;20.06;74.56
17764;BME280;22245;52.832;13.816;2023-09-12T08:12:10;101043.41;;;20.22;74.16
17764;BME280;22245;52.832;13.816;2023-09-12T08:15:32;101037.16;;;20.36;72.67
17764;BME280;22245;52.832;13.816;2023-09-12T08:18:53;101043.81;;;20.56;71.39
17764;BME280;22245;52.832;13.816;2023-09-12T08:22:15;101032.13;;;20.70;71.25
17764;BME280;22245;52.832;13.816;2023-09-12T08:25:36;101040.69;;;20.89;70.16
17764;BME280;22245;52.832;13.816;2023-09-12T08:28:59;101047.94;;;21.03;69.27
17764;BME280;22245;52.832;13.816;2023-09-12T08:32:20;101050.53;;;21.18;68.78
17764;BME280;22245;52.832;13.816;2023-09-12T08:35:43;101042.34;;;21.33;67.90
17764;BME280;22245;52.832;13.816;2023-09-12T08:39:04;101038.72;;;21.48;66.80
17764;BME280;22245;52.832;13.816;2023-09-12T08:42:29;101029.88;;;21.61;66.06
17764;BME280;22245;52.832;13.816;2023-09-12T08:45:53;101031.00;;;21.73;66.06
17764;BME280;22245;52.832;13.816;2023-09-12T08:49:15;101030.28;;;21.93;64.71
17764;BME280;22245;52.832;13.816;2023-09-12T08:52:37;101024.78;;;22.15;64.23
17764;BME280;22245;52.832;13.816;2023-09-12T08:56:11;101031.16;;;22.35;65.95
17764;BME280;22245;52.832;13.816;2023-09-12T08:59:34;101027.66;;;22.48;63.18
17764;BME280;22245;52.832;13.816;2023-09-12T09:02:57;101032.28;;;22.61;63.26
17764;BME280;22245;52.832;13.816;2023-09-12T09:06:19;101037.78;;;22.75;61.72
17764;BME280;22245;52.832;13.816;2023-09-12T09:09:42;101034.03;;;22.89;64.34
17764;BME280;22245;52.832;13.816;2023-09-12T09:13:04;101036.16;;;23.07;61.47
17764;BME280;22245;52.832;13.816;2023-09-12T09:16:27;101032.19;;;23.17;60.92
17764;BME280;22245;52.832;13.816;2023-09-12T09:19:50;101027.19;;;23.34;59.88
17764;BME280;22245;52.832;13.816;2023-09-12T09:23:11;101033.69;;;23.53;59.01
17764;BME280;22245;52.832;13.816;2023-09-12T09:26:43;101035.13;;;23.69;56.94
17764;BME280;22245;52.832;13.816;2023-09-12T09:30:06;101034.47;;;23.87;58.23
17764;BME280;22245;52.832;13.816;2023-09-12T09:33:27;101033.41;;;23.95;58.03
17764;BME280;22245;52.832;13.816;2023-09-12T09:36:57;101032.78;;;24.06;56.37
17764;BME280;22245;52.832;13.816;2023-09-12T09:40:21;101033.75;;;24.19;56.13
17764;BME280;22245;52.832;13.816;2023-09-12T09:43:43;101027.22;;;24.33;56.60
17764;BME280;22245;52.832;13.816;2023-09-12T09:47:05;101032.00;;;24.45;56.31
17764;BME280;22245;52.832;13.816;2023-09-12T09:50:27;101026.69;;;24.56;54.13
17764;BME280;22245;52.832;13.816;2023-09-12T09:53:52;101023.06;;;24.69;54.92
17764;BME280;22245;52.832;13.816;2023-09-12T09:57:18;101028.91;;;24.80;54.51
17764;BME280;22245;52.832;13.816;2023-09-12T10:00:40;101021.91;;;24.91;53.81
17764;BME280;22245;52.832;13.816;2023-09-12T10:04:01;101038.19;;;24.97;53.91
17764;BME280;22245;52.832;13.816;2023-09-12T10:07:25;101031.44;;;25.07;54.22
17764;BME280;22245;52.832;13.816;2023-09-12T10:10:48;101039.47;;;25.27;53.14
17764;BME280;22245;52.832;13.816;2023-09-12T10:14:11;101035.59;;;25.35;52.98
17764;BME280;22245;52.832;13.816;2023-09-12T10:17:36;101029.09;;;25.36;53.52
17764;BME280;22245;52.832;13.816;2023-09-12T10:21:04;101023.84;;;25.41;53.27
17764;BME280;22245;52.832;13.816;2023-09-12T10:24:29;101020.25;;;25.47;52.32
17764;BME280;22245;52.832;13.816;2023-09-12T10:27:54;101020.59;;;25.51;53.57
17764;BME280;22245;52.832;13.816;2023-09-12T10:31:17;101009.25;;;25.54;53.76
17764;BME280;22245;52.832;13.816;2023-09-12T10:34:40;101019.28;;;25.60;53.90
17764;BME280;22245;52.832;13.816;2023-09-12T10:38:13;101019.81;;;25.69;53.66
17764;BME280;22245;52.832;13.816;2023-09-12T10:41:38;101021.19;;;25.78;53.70
17764;BME280;22245;52.832;13.816;2023-09-12T10:45:02;101018.31;;;25.92;52.86
17764;BME280;22245;52.832;13.816;2023-09-12T10:48:28;101021.78;;;25.99;52.77
17764;BME280;22245;52.832;13.816;2023-09-12T10:51:49;101012.09;;;26.03;51.42
17764;BME280;22245;52.832;13.816;2023-09-12T10:55:16;101013.91;;;26.09;51.57
17764;BME280;22245;52.832;13.816;2023-09-12T10:59:08;100999.78;;;26.12;52.26
17764;BME280;22245;52.832;13.816;2023-09-12T11:02:34;100997.28;;;26.18;51.09
17764;BME280;22245;52.832;13.816;2023-09-12T11:05:56;100989.44;;;26.21;50.31
17764;BME280;22245;52.832;13.816;2023-09-12T11:09:18;100993.97;;;26.27;50.42
17764;BME280;22245;52.832;13.816;2023-09-12T11:12:40;100995.81;;;26.34;49.62
17764;BME280;22245;52.832;13.816;2023-09-12T11:16:13;100993.56;;;26.42;49.40
17764;BME280;22245;52.832;13.816;2023-09-12T11:19:44;100981.28;;;26.52;48.60
17764;BME280;22245;52.832;13.816;2023-09-12T11:23:10;100990.41;;;26.57;49.16
17764;BME280;22245;52.832;13.816;2023-09-12T11:26:32;100990.19;;;26.59;49.41
17764;BME280;22245;52.832;13.816;2023-09-12T11:30:03;100988.78;;;26.68;49.58
17764;BME280;22245;52.832;13.816;2023-09-12T11:33:25;100990.59;;;26.75;49.38
17764;BME280;22245;52.832;13.816;2023-09-12T11:36:48;100989.66;;;26.81;49.48
17764;BME280;22245;52.832;13.816;2023-09-12T11:40:19;100979.94;;;26.85;48.67
17764;BME280;22245;52.832;13.816;2023-09-12T11:43:43;100989.34;;;26.89;48.76
17764;BME280;22245;52.832;13.816;2023-09-12T11:47:08;100981.03;;;26.96;48.73
17764;BME280;22245;52.832;13.816;2023-09-12T11:50:33;100970.00;;;27.02;47.91
17764;BME280;22245;52.832;13.816;2023-09-12T11:53:57;100973.81;;;27.01;48.28
17764;BME280;22245;52.832;13.816;2023-09-12T11:57:20;100979.50;;;27.00;48.54
17764;BME280;22245;52.832;13.816;2023-09-12T12:00:43;100977.13;;;27.04;47.05
17764;BME280;22245;52.832;13.816;2023-09-12T12:04:06;100972.38;;;27.11;48.18
17764;BME280;22245;52.832;13.816;2023-09-12T12:07:28;100969.28;;;27.19;47.81
17764;BME280;22245;52.832;13.816;2023-09-12T12:10:52;100961.81;;;27.26;48.20
17764;BME280;22245;52.832;13.816;2023-09-12T12:14:15;100964.09;;;27.29;47.50
17764;BME280;22245;52.832;13.816;2023-09-12T12:17:37;100958.97;;;27.33;48.03
17764;BME280;22245;52.832;13.816;2023-09-12T12:21:01;100962.28;;;27.35;48.58
17764;BME280;22245;52.832;13.816;2023-09-12T12:24:23;100966.56;;;27.43;48.95
17764;BME280;22245;52.832;13.816;2023-09-12T12:27:47;100961.59;;;27.52;47.95
17764;BME280;22245;52.832;13.816;2023-09-12T12:31:09;100968.38;;;27.61;47.09
17764;BME280;22245;52.832;13.816;2023-09-12T12:34:31;100957.16;;;27.63;47.29
17764;BME280;22245;52.832;13.816;2023-09-12T12:38:13;100959.78;;;27.69;46.74
17764;BME280;22245;52.832;13.816;2023-09-12T12:41:35;100959.78;;;27.69;46.10
17764;BME280;22245;52.832;13.816;2023-09-12T12:45:13;100942.06;;;27.72;47.11
17764;BME280;22245;52.832;13.816;2023-09-12T12:48:35;100952.03;;;27.78;48.40
17764;BME280;22245;52.832;13.816;2023-09-12T12:51:58;100957.03;;;27.81;47.52
17764;BME280;22245;52.832;13.816;2023-09-12T12:55:21;100954.53;;;27.80;47.73
17764;BME280;22245;52.832;13.816;2023-09-12T12:58:47;100950.69;;;27.81;48.31
17764;BME280;22245;52.832;13.816;2023-09-12T13:02:10;100950.84;;;27.86;48.51
17764;BME280;22245;52.832;13.816;2023-09-12T13:05:32;100952.81;;;27.91;47.00
17764;BME280;22245;52.832;13.816;2023-09-12T13:08:53;100952.59;;;27.92;47.08
17764;BME280;22245;52.832;13.816;2023-09-12T13:12:17;100953.81;;;27.84;46.71
17764;BME280;22245;52.832;13.816;2023-09-12T13:15:39;100954.41;;;27.74;47.20
17764;BME280;22245;52.832;13.816;2023-09-12T13:19:01;100942.56;;;27.69;47.61
17764;BME280;22245;52.832;13.816;2023-09-12T13:22:23;100939.81;;;27.69;47.74
17764;BME280;22245;52.832;13.816;2023-09-12T13:25:44;100943.13;;;27.71;47.77
17764;BME280;22245;52.832;13.816;2023-09-12T13:29:06;100936.59;;;27.72;48.41
17764;BME280;22245;52.832;13.816;2023-09-12T13:32:27;100937.41;;;27.72;47.17
17764;BME280;22245;52.832;13.816;2023-09-12T13:35:51;100940.50;;;27.76;47.60
17764;BME280;22245;52.832;13.816;2023-09-12T13:39:13;100929.66;;;27.81;48.04
17764;BME280;22245;52.832;13.816;2023-09-12T13:42:34;100931.41;;;27.87;48.82
17764;BME280;22245;52.832;13.816;2023-09-12T13:45:56;100932.59;;;27.92;47.99
17764;BME280;22245;52.832;13.816;2023-09-12T13:49:18;100923.91;;;27.95;47.45
17764;BME280;22245;52.832;13.816;2023-09-12T13:52:41;100926.41;;;27.96;47.41
17764;BME280;22245;52.832;13.816;2023-09-12T13:56:03;100922.34;;;27.99;46.67
17764;BME280;22245;52.832;13.816;2023-09-12T13:59:26;100922.69;;;28.02;48.25
17764;BME280;22245;52.832;13.816;2023-09-12T14:03:04;100932.66;;;28.09;46.64
17764;BME280;22245;52.832;13.816;2023-09-12T14:06:25;100934.09;;;28.11;46.76
17764;BME280;22245;52.832;13.816;2023-09-12T14:09:49;100933.00;;;28.12;47.01
17764;BME280;22245;52.832;13.816;2023-09-12T14:13:13;100944.59;;;28.14;46.66
17764;BME280;22245;52.832;13.816;2023-09-12T14:16:41;100938.59;;;28.17;46.37
17764;BME280;22245;52.832;13.816;2023-09-12T14:20:08;100939.19;;;28.20;46.94
17764;BME280;22245;52.832;13.816;2023-09-12T14:23:30;100943.00;;;28.19;45.74
17764;BME280;22245;52.832;13.816;2023-09-12T14:26:54;100948.22;;;28.20;45.51
17764;BME280;22245;52.832;13.816;2023-09-12T14:30:17;100945.34;;;28.27;46.86
17764;BME280;22245;52.832;13.816;2023-09-12T14:33:40;100949.03;;;28.33;47.86
17764;BME280;22245;52.832;13.816;2023-09-12T14:37:03;100942.78;;;28.37;45.67
17764;BME280;22245;52.832;13.816;2023-09-12T14:40:24;100945.03;;;28.40;46.10
17764;BME280;22245;52.832;13.816;2023-09-12T14:43:48;100937.75;;;28.46;45.60
17764;BME280;22245;52.832;13.816;2023-09-12T14:47:10;100935.28;;;28.44;45.15
17764;BME280;22245;52.832;13.816;2023-09-12T14:50:31;100933.13;;;28.47;43.67
17764;BME280;22245;52.832;13.816;2023-09-12T14:54:02;100934.69;;;28.42;43.85
17764;BME280;22245;52.832;13.816;2023-09-12T14:57:23;100947.31;;;28.43;43.90
17764;BME280;22245;52.832;13.816;2023-09-12T15:00:46;100945.47;;;28.49;44.47
17764;BME280;22245;52.832;13.816;2023-09-12T15:04:08;100949.06;;;28.50;44.25
17764;BME280;22245;52.832;13.816;2023-09-12T15:07:30;100952.53;;;28.45;44.27
17764;BME280;22245;52.832;13.816;2023-09-12T15:10:53;100953.50;;;28.39;45.34
17764;BME280;22245;52.832;13.816;2023-09-12T15:14:15;100957.47;;;28.31;45.58
17764;BME280;22245;52.832;13.816;2023-09-12T15:17:38;100951.41;;;28.29;46.05
17764;BME280;22245;52.832;13.816;2023-09-12T15:21:00;100954.06;;;28.24;45.92
17764;BME280;22245;52.832;13.816;2023-09-12T15:24:22;100959.19;;;28.20;46.31
17764;BME280;22245;52.832;13.816;2023-09-12T15:27:44;100969.22;;;28.02;45.93
17764;BME280;22245;52.832;13.816;2023-09-12T15:31:05;100965.22;;;27.81;45.45
17764;BME280;22245;52.832;13.816;2023-09-12T15:34:28;100979.19;;;27.68;45.43
17764;BME280;22245;52.832;13.816;2023-09-12T15:37:50;100977.38;;;27.62;45.44
17764;BME280;22245;52.832;13.816;2023-09-12T15:41:11;100969.91;;;27.57;45.85
17764;BME280;22245;52.832;13.816;2023-09-12T15:44:33;100976.91;;;27.65;45.58
17764;BME280;22245;52.832;13.816;2023-09-12T15:47:55;100970.97;;;27.68;45.42
17764;BME280;22245;52.832;13.816;2023-09-12T15:51:18;100978.13;;;27.69;44.84
17764;BME280;22245;52.832;13.816;2023-09-12T15:54:39;100989.53;;;27.66;45.06
17764;BME280;22245;52.832;13.816;2023-09-12T15:58:01;100974.31;;;27.58;45.12
17764;BME280;22245;52.832;13.816;2023-09-12T16:01:23;100980.13;;;27.50;45.61
17764;BME280;22245;52.832;13.816;2023-09-12T16:04:45;100972.16;;;27.48;45.71
17764;BME280;22245;52.832;13.816;2023-09-12T16:08:08;100972.16;;;27.48;45.70
17764;BME280;22245;52.832;13.816;2023-09-12T16:11:31;100968.97;;;27.51;46.02
17764;BME280;22245;52.832;13.816;2023-09-12T16:14:54;100970.50;;;27.47;46.10
17764;BME280;22245;52.832;13.816;2023-09-12T16:18:16;100959.78;;;27.45;46.27
17764;BME280;22245;52.832;13.816;2023-09-12T16:21:37;100969.41;;;27.48;46.31
17764;BME280;22245;52.832;13.816;2023-09-12T16:25:00;100966.94;;;27.47;46.06
17764;BME280;22245;52.832;13.816;2023-09-12T16:28:22;100960.25;;;27.42;45.95
17764;BME280;22245;52.832;13.816;2023-09-12T16:31:44;100959.81;;;27.34;45.85
17764;BME280;22245;52.832;13.816;2023-09-12T16:35:06;100961.81;;;27.26;45.94
17764;BME280;22245;52.832;13.816;2023-09-12T16:38:28;100976.56;;;27.13;46.59
17764;BME280;22245;52.832;13.816;2023-09-12T16:41:54;100980.94;;;27.02;47.11
17764;BME280;22245;52.832;13.816;2023-09-12T16:45:15;100983.28;;;26.87;47.49
17764;BME280;22245;52.832;13.816;2023-09-12T16:48:37;100988.31;;;26.71;47.84
17764;BME280;22245;52.832;13.816;2023-09-12T16:51:58;100990.06;;;26.54;47.88
17764;BME280;22245;52.832;13.816;2023-09-12T16:55:21;100992.38;;;26.38;47.92
17764;BME280;22245;52.832;13.816;2023-09-12T16:58:43;100987.91;;;26.25;48.23
17764;BME280;22245;52.832;13.816;2023-09-12T17:02:05;100999.19;;;26.10;48.61
17764;BME280;22245;52.832;13.816;2023-09-12T17:05:27;100990.34;;;25.96;49.23
17764;BME280;22245;52.832;13.816;2023-09-12T17:08:48;100983.38;;;25.82;49.76
17764;BME280;22245;52.832;13.816;2023-09-12T17:12:10;100987.22;;;25.74;49.94
17764;BME280;22245;52.832;13.816;2023-09-12T17:15:34;100996.31;;;25.68;49.99
17764;BME280;22245;52.832;13.816;2023-09-12T17:18:58;101005.41;;;25.62;50.50
17764;BME280;22245;52.832;13.816;2023-09-12T17:22:19;101007.59;;;25.53;51.33
17764;BME280;22245;52.832;13.816;2023-09-12T17:25:41;101017.69;;;25.46;51.15
17764;BME280;22245;52.832;13.816;2023-09-12T17:29:03;101017.78;;;25.39;51.40